sensor_id;sensor_type;location;lat;lon;timestamp;pressure;altitude;pressure_sealevel;temperature;humidity
37648;BME280;23490;53.656;10.076;2023-04-07T00:00:16;99211.50;;;-145.95;52.07
37648;BME280;23490;53.656;10.076;2023-04-07T00:02:42;99184.66;;;-145.95;52.14
37648;BME280;23490;53.656;10.076;2023-04-07T00:05:08;99197.03;;;-145.95;51.84
37648;BME280;23490;53.656;10.076;2023-04-07T00:07:33;99190.84;;;-145.95;52.39
37648;BME280;23490;53.656;10.076;2023-04-07T00:09:59;99186.72;;;-145.95;52.49
37648;BME280;23490;53.656;10.076;2023-04-07T00:12:24;99219.75;;;-145.95;52.39
37648;BME280;23490;53.656;10.076;2023-04-07T00:14:50;99219.75;;;-145.95;52.34
37648;BME280;23490;53.656;10.076;2023-04-07T00:17:16;99236.28;;;-145.95;52.66
37648;BME280;23490;53.656;10.076;2023-04-07T00:19:42;99211.50;;;-145.95;52.61
37648;BME280;23490;53.656;10.076;2023-04-07T00:22:08;99178.44;;;-145.95;52.60
37648;BME280;23490;53.656;10.076;2023-04-07T00:24:33;99188.78;;;-145.95;53.07
37648;BME280;23490;53.656;10.076;2023-04-07T00:26:58;99223.88;;;-145.95;52.54
37648;BME280;23490;53.656;10.076;2023-04-07T00:29:24;99217.69;;;-145.95;52.87
37648;BME280;23490;53.656;10.076;2023-04-07T00:31:50;99228.00;;;-145.95;53.34
37648;BME280;23490;53.656;10.076;2023-04-07T00:34:15;99217.69;;;-145.95;53.27
37648;BME280;23490;53.656;10.076;2023-04-07T00:36:40;99223.88;;;-145.95;53.77
37648;BME280;23490;53.656;10.076;2023-04-07T00:39:06;99236.28;;;-145.95;53.29
37648;BME280;23490;53.656;10.076;2023-04-07T00:41:33;99236.28;;;-145.95;53.07
37648;BME280;23490;53.656;10.076;2023-04-07T00:43:59;99232.16;;;-145.95;53.29
37648;BME280;23490;53.656;10.076;2023-04-07T00:46:25;99215.63;;;-145.95;53.32
37648;BME280;23490;53.656;10.076;2023-04-07T00:48:51;99240.41;;;-145.95;53.97
37648;BME280;23490;53.656;10.076;2023-04-07T00:51:19;99248.66;;;-145.95;53.62
37648;BME280;23490;53.656;10.076;2023-04-07T00:53:45;99217.69;;;-145.95;53.90
37648;BME280;23490;53.656;10.076;2023-04-07T00:56:10;99250.72;;;-145.95;53.82
37648;BME280;23490;53.656;10.076;2023-04-07T00:58:36;99248.66;;;-145.95;54.01
37648;BME280;23490;53.656;10.076;2023-04-07T01:03:45;99271.38;;;-145.95;54.38
37648;BME280;23490;53.656;10.076;2023-04-07T01:06:14;99265.19;;;-145.95;54.32
37648;BME280;23490;53.656;10.076;2023-04-07T01:08:49;99223.88;;;-145.95;54.50
37648;BME280;23490;53.656;10.076;2023-04-07T01:11:23;99219.75;;;-145.95;54.97
37648;BME280;23490;53.656;10.076;2023-04-07T01:13:50;99256.94;;;-145.95;54.69
37648;BME280;23490;53.656;10.076;2023-04-07T01:16:23;99256.94;;;-145.95;54.83
37648;BME280;23490;53.656;10.076;2023-04-07T01:18:51;99261.06;;;-145.95;54.51
37648;BME280;23490;53.656;10.076;2023-04-07T01:21:18;99265.19;;;-145.95;55.01
37648;BME280;23490;53.656;10.076;2023-04-07T01:24:02;99279.63;;;-145.95;55.09
37648;BME280;23490;53.656;10.076;2023-04-07T01:26:31;99211.50;;;-145.95;55.60
37648;BME280;23490;53.656;10.076;2023-04-07T01:31:38;99287.91;;;-145.95;55.47
37648;BME280;23490;53.656;10.076;2023-04-07T01:34:05;99283.78;;;-145.95;55.08
37648;BME280;23490;53.656;10.076;2023-04-07T01:36:33;99285.84;;;-145.95;55.40
37648;BME280;23490;53.656;10.076;2023-04-07T01:38:58;99273.44;;;-145.95;55.19
37648;BME280;23490;53.656;10.076;2023-04-07T01:41:24;99273.44;;;-145.95;55.14
37648;BME280;23490;53.656;10.076;2023-04-07T01:43:51;99298.22;;;-145.95;55.20
37648;BME280;23490;53.656;10.076;2023-04-07T01:46:18;99296.16;;;-145.95;55.63
37648;BME280;23490;53.656;10.076;2023-04-07T01:48:44;99269.31;;;-145.95;55.93
37648;BME280;23490;53.656;10.076;2023-04-07T01:51:10;99298.22;;;-145.95;55.73
37648;BME280;23490;53.656;10.076;2023-04-07T01:53:41;99261.06;;;-145.95;55.91
37648;BME280;23490;53.656;10.076;2023-04-07T01:56:07;99294.09;;;-145.95;55.65
37648;BME280;23490;53.656;10.076;2023-04-07T01:58:32;99310.63;;;-145.95;56.07
37648;BME280;23490;53.656;10.076;2023-04-07T02:00:57;99277.56;;;-145.95;55.35
37648;BME280;23490;53.656;10.076;2023-04-07T02:03:29;99285.84;;;-145.95;55.44
37648;BME280;23490;53.656;10.076;2023-04-07T02:06:01;99302.34;;;-145.95;56.04
37648;BME280;23490;53.656;10.076;2023-04-07T02:08:29;99287.91;;;-145.95;55.60
37648;BME280;23490;53.656;10.076;2023-04-07T02:10:57;99250.72;;;-145.95;55.43
37648;BME280;23490;53.656;10.076;2023-04-07T02:13:24;99314.75;;;-145.95;55.58
37648;BME280;23490;53.656;10.076;2023-04-07T02:15:52;99256.94;;;-145.95;55.63
37648;BME280;23490;53.656;10.076;2023-04-07T02:18:19;99294.09;;;-145.95;56.13
37648;BME280;23490;53.656;10.076;2023-04-07T02:20:46;99281.72;;;-145.95;55.75
37648;BME280;23490;53.656;10.076;2023-04-07T02:23:13;99323.00;;;-145.95;56.06
37648;BME280;23490;53.656;10.076;2023-04-07T02:25:38;99298.22;;;-145.95;55.73
37648;BME280;23490;53.656;10.076;2023-04-07T02:28:04;99306.50;;;-145.95;55.80
37648;BME280;23490;53.656;10.076;2023-04-07T02:30:31;99240.41;;;-145.95;56.07
37648;BME280;23490;53.656;10.076;2023-04-07T02:32:57;99296.16;;;-145.95;55.96
37648;BME280;23490;53.656;10.076;2023-04-07T02:35:22;99261.06;;;-145.95;55.60
37648;BME280;23490;53.656;10.076;2023-04-07T02:37:48;99314.75;;;-145.95;55.72
37648;BME280;23490;53.656;10.076;2023-04-07T02:40:14;99285.84;;;-145.95;55.88
37648;BME280;23490;53.656;10.076;2023-04-07T02:42:39;99339.53;;;-145.95;56.08
37648;BME280;23490;53.656;10.076;2023-04-07T02:45:06;99331.28;;;-145.95;55.98
37648;BME280;23490;53.656;10.076;2023-04-07T02:47:33;99306.50;;;-145.95;55.96
37648;BME280;23490;53.656;10.076;2023-04-07T02:49:58;99281.72;;;-145.95;56.04
37648;BME280;23490;53.656;10.076;2023-04-07T02:52:24;99310.63;;;-145.95;55.80
37648;BME280;23490;53.656;10.076;2023-04-07T02:54:49;99265.19;;;-145.95;55.96
37648;BME280;23490;53.656;10.076;2023-04-07T02:57:15;99302.34;;;-145.95;56.12
37648;BME280;23490;53.656;10.076;2023-04-07T02:59:40;99314.75;;;-145.95;55.93
37648;BME280;23490;53.656;10.076;2023-04-07T03:02:05;99335.41;;;-145.95;56.06
37648;BME280;23490;53.656;10.076;2023-04-07T03:04:31;99296.16;;;-145.95;56.04
37648;BME280;23490;53.656;10.076;2023-04-07T03:06:56;99331.28;;;-145.95;56.13
37648;BME280;23490;53.656;10.076;2023-04-07T03:09:22;99314.75;;;-145.95;55.83
37648;BME280;23490;53.656;10.076;2023-04-07T03:11:48;99339.53;;;-145.95;56.21
37648;BME280;23490;53.656;10.076;2023-04-07T03:14:13;99343.66;;;-145.95;56.21
37648;BME280;23490;53.656;10.076;2023-04-07T03:16:41;99314.75;;;-145.95;55.96
37648;BME280;23490;53.656;10.076;2023-04-07T03:19:07;99310.63;;;-145.95;56.09
37648;BME280;23490;53.656;10.076;2023-04-07T03:21:33;99281.72;;;-145.95;55.72
37648;BME280;23490;53.656;10.076;2023-04-07T03:23:58;99298.22;;;-145.95;55.97
37648;BME280;23490;53.656;10.076;2023-04-07T03:26:24;99314.75;;;-145.95;55.86
37648;BME280;23490;53.656;10.076;2023-04-07T03:28:49;99345.72;;;-145.95;55.79
37648;BME280;23490;53.656;10.076;2023-04-07T03:31:14;99296.16;;;-145.95;55.60
37648;BME280;23490;53.656;10.076;2023-04-07T03:33:40;99320.94;;;-145.95;55.84
37648;BME280;23490;53.656;10.076;2023-04-07T03:36:05;99318.88;;;-145.95;56.18
37648;BME280;23490;53.656;10.076;2023-04-07T03:38:31;99294.09;;;-145.95;56.09
37648;BME280;23490;53.656;10.076;2023-04-07T03:40:57;99339.53;;;-145.95;55.40
37648;BME280;23490;53.656;10.076;2023-04-07T03:43:22;99335.41;;;-145.95;55.64
37648;BME280;23490;53.656;10.076;2023-04-07T03:45:47;99298.22;;;-145.95;55.90
37648;BME280;23490;53.656;10.076;2023-04-07T03:48:13;99347.78;;;-145.95;56.09
37648;BME280;23490;53.656;10.076;2023-04-07T03:50:38;99339.53;;;-145.95;56.16
37648;BME280;23490;53.656;10.076;2023-04-07T03:53:04;99302.34;;;-145.95;55.80
37648;BME280;23490;53.656;10.076;2023-04-07T03:55:29;99339.53;;;-145.95;56.06
37648;BME280;23490;53.656;10.076;2023-04-07T03:57:55;99323.00;;;-145.95;55.99
37648;BME280;23490;53.656;10.076;2023-04-07T04:00:20;99316.81;;;-145.95;55.55
37648;BME280;23490;53.656;10.076;2023-04-07T04:02:46;99343.66;;;-145.95;55.46
37648;BME280;23490;53.656;10.076;2023-04-07T04:05:11;99335.41;;;-145.95;55.83
37648;BME280;23490;53.656;10.076;2023-04-07T04:07:36;99323.00;;;-145.95;56.00
37648;BME280;23490;53.656;10.076;2023-04-07T04:10:02;99356.06;;;-145.95;55.82
37648;BME280;23490;53.656;10.076;2023-04-07T04:12:27;99320.94;;;-145.95;55.75
37648;BME280;23490;53.656;10.076;2023-04-07T04:14:53;99343.66;;;-145.95;56.34
37648;BME280;23490;53.656;10.076;2023-04-07T04:17:18;99318.88;;;-145.95;56.21
37648;BME280;23490;53.656;10.076;2023-04-07T04:19:43;99343.66;;;-145.95;55.78
37648;BME280;23490;53.656;10.076;2023-04-07T04:22:09;99347.78;;;-145.95;55.93
37648;BME280;23490;53.656;10.076;2023-04-07T04:24:34;99333.34;;;-145.95;55.91
37648;BME280;23490;53.656;10.076;2023-04-07T04:27:00;99347.78;;;-145.95;56.29
37648;BME280;23490;53.656;10.076;2023-04-07T04:29:26;99329.19;;;-145.95;56.47
37648;BME280;23490;53.656;10.076;2023-04-07T04:31:51;99339.53;;;-145.95;56.42
37648;BME280;23490;53.656;10.076;2023-04-07T04:34:17;99314.75;;;-145.95;56.74
37648;BME280;23490;53.656;10.076;2023-04-07T04:36:42;99343.66;;;-145.95;56.53
37648;BME280;23490;53.656;10.076;2023-04-07T04:39:08;99331.28;;;-145.95;57.13
37648;BME280;23490;53.656;10.076;2023-04-07T04:41:33;99343.66;;;-145.95;56.90
37648;BME280;23490;53.656;10.076;2023-04-07T04:43:58;99343.66;;;-145.95;56.60
37648;BME280;23490;53.656;10.076;2023-04-07T04:46:24;99368.44;;;-145.95;56.66
37648;BME280;23490;53.656;10.076;2023-04-07T04:48:50;99335.41;;;-145.95;56.82
37648;BME280;23490;53.656;10.076;2023-04-07T04:51:18;99347.78;;;-145.95;56.82
37648;BME280;23490;53.656;10.076;2023-04-07T04:53:44;99351.91;;;-145.95;57.04
37648;BME280;23490;53.656;10.076;2023-04-07T04:56:10;99356.06;;;-145.95;57.59
37648;BME280;23490;53.656;10.076;2023-04-07T04:58:36;99327.13;;;-145.95;57.70
37648;BME280;23490;53.656;10.076;2023-04-07T05:01:04;99306.50;;;-145.95;58.39
37648;BME280;23490;53.656;10.076;2023-04-07T05:03:29;99368.44;;;-145.95;58.93
37648;BME280;23490;53.656;10.076;2023-04-07T05:05:55;99370.50;;;-145.95;59.18
37648;BME280;23490;53.656;10.076;2023-04-07T05:08:20;99339.53;;;-145.95;59.04
37648;BME280;23490;53.656;10.076;2023-04-07T05:10:45;99360.19;;;-145.95;59.18
37648;BME280;23490;53.656;10.076;2023-04-07T05:13:11;99335.41;;;-145.95;59.37
37648;BME280;23490;53.656;10.076;2023-04-07T05:15:36;99389.09;;;-145.95;59.12
37648;BME280;23490;53.656;10.076;2023-04-07T05:18:02;99368.44;;;-145.95;59.04
37648;BME280;23490;53.656;10.076;2023-04-07T05:20:27;99368.44;;;-145.95;59.48
37648;BME280;23490;53.656;10.076;2023-04-07T05:22:52;99366.38;;;-145.95;59.70
37648;BME280;23490;53.656;10.076;2023-04-07T05:25:18;99360.19;;;-145.95;58.88
37648;BME280;23490;53.656;10.076;2023-04-07T05:27:43;99372.56;;;-145.95;58.92
37648;BME280;23490;53.656;10.076;2023-04-07T05:30:08;99372.56;;;-145.95;58.96
37648;BME280;23490;53.656;10.076;2023-04-07T05:32:37;99354.00;;;-145.95;58.57
37648;BME280;23490;53.656;10.076;2023-04-07T05:35:02;99368.44;;;-145.95;58.01
37648;BME280;23490;53.656;10.076;2023-04-07T05:37:27;99323.00;;;-145.95;58.27
37648;BME280;23490;53.656;10.076;2023-04-07T05:39:53;99351.91;;;-145.95;58.32
37648;BME280;23490;53.656;10.076;2023-04-07T05:42:18;99318.88;;;-145.95;57.86
37648;BME280;23490;53.656;10.076;2023-04-07T05:44:43;99323.00;;;-145.95;57.41
37648;BME280;23490;53.656;10.076;2023-04-07T05:47:09;99339.53;;;-145.95;57.35
37648;BME280;23490;53.656;10.076;2023-04-07T05:49:35;99304.41;;;-145.95;57.12
37648;BME280;23490;53.656;10.076;2023-04-07T05:52:00;99327.13;;;-145.95;56.95
37648;BME280;23490;53.656;10.076;2023-04-07T05:54:27;99323.00;;;-145.95;56.65
37648;BME280;23490;53.656;10.076;2023-04-07T05:56:53;99294.09;;;-145.95;56.23
37648;BME280;23490;53.656;10.076;2023-04-07T05:59:18;99356.06;;;-145.95;56.84
37648;BME280;23490;53.656;10.076;2023-04-07T06:01:43;99335.41;;;-145.95;55.83
37648;BME280;23490;53.656;10.076;2023-04-07T06:04:09;99300.28;;;-145.95;55.46
37648;BME280;23490;53.656;10.076;2023-04-07T06:06:34;99310.63;;;-145.95;55.42
37648;BME280;23490;53.656;10.076;2023-04-07T06:09:00;99285.84;;;-145.95;55.13
37648;BME280;23490;53.656;10.076;2023-04-07T06:11:25;99294.09;;;-145.95;54.65
37648;BME280;23490;53.656;10.076;2023-04-07T06:13:51;99273.44;;;-145.95;54.41
37648;BME280;23490;53.656;10.076;2023-04-07T06:16:19;99316.81;;;-145.95;54.49
37648;BME280;23490;53.656;10.076;2023-04-07T06:18:45;99248.66;;;-145.95;54.66
37648;BME280;23490;53.656;10.076;2023-04-07T06:21:10;99263.13;;;-145.95;53.80
37648;BME280;23490;53.656;10.076;2023-04-07T06:23:36;99265.19;;;-145.95;53.49
37648;BME280;23490;53.656;10.076;2023-04-07T06:26:01;99281.72;;;-145.95;53.42
37648;BME280;23490;53.656;10.076;2023-04-07T06:28:27;99228.00;;;-145.95;53.13
37648;BME280;23490;53.656;10.076;2023-04-07T06:30:52;99265.19;;;-145.95;52.80
37648;BME280;23490;53.656;10.076;2023-04-07T06:33:17;99215.63;;;-145.95;52.54
37648;BME280;23490;53.656;10.076;2023-04-07T06:35:43;99236.28;;;-145.95;52.34
37648;BME280;23490;53.656;10.076;2023-04-07T06:38:10;99217.69;;;-145.95;51.79
37648;BME280;23490;53.656;10.076;2023-04-07T06:40:36;99170.19;;;-145.95;51.15
37648;BME280;23490;53.656;10.076;2023-04-07T06:43:01;99170.19;;;-145.95;50.80
37648;BME280;23490;53.656;10.076;2023-04-07T06:45:28;99186.72;;;-145.95;50.44
37648;BME280;23490;53.656;10.076;2023-04-07T06:47:53;99174.31;;;-145.95;49.77
37648;BME280;23490;53.656;10.076;2023-04-07T06:50:19;99116.50;;;-145.95;49.62
37648;BME280;23490;53.656;10.076;2023-04-07T06:52:46;99122.69;;;-145.95;49.05
37648;BME280;23490;53.656;10.076;2023-04-07T06:55:11;99124.75;;;-145.95;48.96
37648;BME280;23490;53.656;10.076;2023-04-07T06:57:37;99104.09;;;-145.95;48.58
37648;BME280;23490;53.656;10.076;2023-04-07T07:00:02;99108.25;;;-145.95;48.06
37648;BME280;23490;53.656;10.076;2023-04-07T07:02:28;99110.31;;;-145.95;48.13
37648;BME280;23490;53.656;10.076;2023-04-07T07:04:53;99042.16;;;-145.95;47.34
37648;BME280;23490;53.656;10.076;2023-04-07T07:07:18;99066.94;;;-145.95;47.10
37648;BME280;23490;53.656;10.076;2023-04-07T07:09:44;99091.72;;;-145.95;46.94
37648;BME280;23490;53.656;10.076;2023-04-07T07:12:09;99069.00;;;-145.95;46.67
37648;BME280;23490;53.656;10.076;2023-04-07T07:14:34;99027.69;;;-145.95;46.41
37648;BME280;23490;53.656;10.076;2023-04-07T07:17:00;99007.06;;;-145.95;46.42
37648;BME280;23490;53.656;10.076;2023-04-07T07:19:25;99021.50;;;-145.95;45.57
37648;BME280;23490;53.656;10.076;2023-04-07T07:21:51;98963.69;;;-145.95;45.87
37648;BME280;23490;53.656;10.076;2023-04-07T07:24:16;98996.72;;;-145.95;45.90
37648;BME280;23490;53.656;10.076;2023-04-07T07:26:41;98971.94;;;-145.95;45.64
37648;BME280;23490;53.656;10.076;2023-04-07T07:29:06;98992.59;;;-145.95;46.69
37648;BME280;23490;53.656;10.076;2023-04-07T07:31:32;98971.94;;;-145.95;46.04
37648;BME280;23490;53.656;10.076;2023-04-07T07:33:58;98976.09;;;-145.95;44.74
37648;BME280;23490;53.656;10.076;2023-04-07T07:36:23;98951.31;;;-145.95;44.56
37648;BME280;23490;53.656;10.076;2023-04-07T07:38:49;98963.69;;;-145.95;44.36
37648;BME280;23490;53.656;10.076;2023-04-07T07:41:15;98949.22;;;-145.95;44.34
37648;BME280;23490;53.656;10.076;2023-04-07T07:43:41;98922.41;;;-145.95;43.95
37648;BME280;23490;53.656;10.076;2023-04-07T07:46:06;98905.88;;;-145.95;44.28
37648;BME280;23490;53.656;10.076;2023-04-07T07:48:31;98922.41;;;-145.95;42.95
37648;BME280;23490;53.656;10.076;2023-04-07T07:50:57;98922.41;;;-145.95;42.76
37648;BME280;23490;53.656;10.076;2023-04-07T07:53:22;98914.13;;;-145.95;42.53
37648;BME280;23490;53.656;10.076;2023-04-07T07:55:48;98885.22;;;-145.95;42.77
37648;BME280;23490;53.656;10.076;2023-04-07T07:58:13;98870.78;;;-145.95;42.47
37648;BME280;23490;53.656;10.076;2023-04-07T08:00:39;98806.75;;;-145.95;42.23
37648;BME280;23490;53.656;10.076;2023-04-07T08:03:05;98833.59;;;-145.95;41.65
37648;BME280;23490;53.656;10.076;2023-04-07T08:05:30;98856.31;;;-145.95;41.50
37648;BME280;23490;53.656;10.076;2023-04-07T08:07:56;98819.16;;;-145.95;41.40
37648;BME280;23490;53.656;10.076;2023-04-07T08:10:21;98794.38;;;-145.95;41.60
37648;BME280;23490;53.656;10.076;2023-04-07T08:12:49;98784.03;;;-145.95;41.25
37648;BME280;23490;53.656;10.076;2023-04-07T08:15:14;98763.41;;;-145.95;41.47
37648;BME280;23490;53.656;10.076;2023-04-07T08:17:40;98769.59;;;-145.95;40.26
37648;BME280;23490;53.656;10.076;2023-04-07T08:20:06;98736.56;;;-145.95;40.48
37648;BME280;23490;53.656;10.076;2023-04-07T08:22:31;98777.84;;;-145.95;40.54
37648;BME280;23490;53.656;10.076;2023-04-07T08:24:56;98730.34;;;-145.95;39.87
37648;BME280;23490;53.656;10.076;2023-04-07T08:27:22;98682.88;;;-145.95;40.74
37648;BME280;23490;53.656;10.076;2023-04-07T08:29:57;98682.88;;;-145.95;39.89
37648;BME280;23490;53.656;10.076;2023-04-07T08:32:23;98637.44;;;-145.95;39.98
37648;BME280;23490;53.656;10.076;2023-04-07T08:34:48;98592.03;;;-145.95;40.96
37648;BME280;23490;53.656;10.076;2023-04-07T08:37:14;98625.06;;;-145.95;39.47
37648;BME280;23490;53.656;10.076;2023-04-07T08:39:39;98612.66;;;-145.95;38.94
37648;BME280;23490;53.656;10.076;2023-04-07T08:42:06;98583.75;;;-145.95;38.43
37648;BME280;23490;53.656;10.076;2023-04-07T08:44:33;98587.88;;;-145.95;38.46
37648;BME280;23490;53.656;10.076;2023-04-07T08:47:00;98554.84;;;-145.95;38.76
37648;BME280;23490;53.656;10.076;2023-04-07T08:49:27;98554.84;;;-145.95;38.93
37648;BME280;23490;53.656;10.076;2023-04-07T08:51:54;98435.09;;;-145.95;38.29
37648;BME280;23490;53.656;10.076;2023-04-07T08:54:21;98466.06;;;-145.95;37.67
37648;BME280;23490;53.656;10.076;2023-04-07T08:56:49;98410.34;;;-145.95;38.18
37648;BME280;23490;53.656;10.076;2023-04-07T08:59:15;98447.50;;;-145.95;37.26
37648;BME280;23490;53.656;10.076;2023-04-07T09:01:50;98346.31;;;-145.95;36.80
37648;BME280;23490;53.656;10.076;2023-04-07T09:04:16;98439.22;;;-145.95;36.73
37648;BME280;23490;53.656;10.076;2023-04-07T09:06:42;98393.81;;;-145.95;36.63
37648;BME280;23490;53.656;10.076;2023-04-07T09:09:07;98278.19;;;-145.95;36.75
37648;BME280;23490;53.656;10.076;2023-04-07T09:11:35;98447.50;;;-145.95;36.63
37648;BME280;23490;53.656;10.076;2023-04-07T09:14:01;98503.25;;;-145.95;36.50
37648;BME280;23490;53.656;10.076;2023-04-07T09:16:28;98402.06;;;-145.95;36.31
37648;BME280;23490;53.656;10.076;2023-04-07T09:18:53;98478.47;;;-145.95;36.25
37648;BME280;23490;53.656;10.076;2023-04-07T09:21:19;98406.19;;;-145.95;36.04
37648;BME280;23490;53.656;10.076;2023-04-07T09:23:45;98402.06;;;-145.95;35.93
37648;BME280;23490;53.656;10.076;2023-04-07T09:28:44;98286.47;;;-145.95;35.31
37648;BME280;23490;53.656;10.076;2023-04-07T09:31:10;98282.31;;;-145.95;34.94
37648;BME280;23490;53.656;10.076;2023-04-07T09:33:35;98336.00;;;-145.95;34.32
37648;BME280;23490;53.656;10.076;2023-04-07T09:36:02;98342.19;;;-145.95;35.33
37648;BME280;23490;53.656;10.076;2023-04-07T09:38:35;98406.19;;;-145.95;35.20
37648;BME280;23490;53.656;10.076;2023-04-07T09:41:19;98280.25;;;-145.95;35.27
37648;BME280;23490;53.656;10.076;2023-04-07T09:43:45;98333.94;;;-145.95;35.06
37648;BME280;23490;53.656;10.076;2023-04-07T09:46:16;98331.88;;;-145.95;35.22
37648;BME280;23490;53.656;10.076;2023-04-07T09:48:43;98360.78;;;-145.95;35.90
37648;BME280;23490;53.656;10.076;2023-04-07T09:51:18;98325.69;;;-145.95;35.67
37648;BME280;23490;53.656;10.076;2023-04-07T09:53:48;98393.81;;;-145.95;35.62
37648;BME280;23490;53.656;10.076;2023-04-07T09:56:21;98208.00;;;-145.95;34.82
37648;BME280;23490;53.656;10.076;2023-04-07T09:58:48;98288.53;;;-145.95;34.16
37648;BME280;23490;53.656;10.076;2023-04-07T10:01:15;98307.09;;;-145.95;35.24
37648;BME280;23490;53.656;10.076;2023-04-07T10:03:44;98183.22;;;-145.95;35.47
37648;BME280;23490;53.656;10.076;2023-04-07T10:06:10;98154.31;;;-145.95;34.51
37648;BME280;23490;53.656;10.076;2023-04-07T10:08:38;98191.50;;;-145.95;34.22
37648;BME280;23490;53.656;10.076;2023-04-07T10:11:04;98179.09;;;-145.95;34.35
37648;BME280;23490;53.656;10.076;2023-04-07T10:13:35;98075.88;;;-145.95;33.09
37648;BME280;23490;53.656;10.076;2023-04-07T10:16:04;98075.88;;;-145.95;34.26
37648;BME280;23490;53.656;10.076;2023-04-07T10:18:32;97997.44;;;-145.95;35.23
37648;BME280;23490;53.656;10.076;2023-04-07T10:21:06;98183.22;;;-145.95;34.63
37648;BME280;23490;53.656;10.076;2023-04-07T10:23:55;98038.72;;;-145.95;35.21
37648;BME280;23490;53.656;10.076;2023-04-07T10:26:25;98020.13;;;-145.95;34.65
37648;BME280;23490;53.656;10.076;2023-04-07T10:28:54;98003.63;;;-145.95;33.60
37648;BME280;23490;53.656;10.076;2023-04-07T10:31:23;98106.84;;;-145.95;34.38
37648;BME280;23490;53.656;10.076;2023-04-07T10:33:52;97997.44;;;-145.95;34.13
37648;BME280;23490;53.656;10.076;2023-04-07T10:36:20;98034.59;;;-145.95;33.22
37648;BME280;23490;53.656;10.076;2023-04-07T10:41:35;98154.31;;;-145.95;35.16
37648;BME280;23490;53.656;10.076;2023-04-07T10:44:05;98063.50;;;-145.95;35.66
37648;BME280;23490;53.656;10.076;2023-04-07T10:49:13;98113.03;;;-145.95;35.78
37648;BME280;23490;53.656;10.076;2023-04-07T10:51:39;98046.97;;;-145.95;37.28
37648;BME280;23490;53.656;10.076;2023-04-07T10:54:19;98005.69;;;-145.95;35.48
37648;BME280;23490;53.656;10.076;2023-04-07T10:59:32;97931.38;;;-145.95;35.85
37648;BME280;23490;53.656;10.076;2023-04-07T11:04:41;98073.81;;;-145.95;36.97
37648;BME280;23490;53.656;10.076;2023-04-07T11:07:07;97890.09;;;-145.95;34.45
37648;BME280;23490;53.656;10.076;2023-04-07T11:09:33;98051.09;;;-145.95;33.47
37648;BME280;23490;53.656;10.076;2023-04-07T11:11:58;98077.94;;;-145.95;33.78
37648;BME280;23490;53.656;10.076;2023-04-07T11:14:29;98059.38;;;-145.95;34.10
37648;BME280;23490;53.656;10.076;2023-04-07T11:16:56;98100.66;;;-145.95;34.17
37648;BME280;23490;53.656;10.076;2023-04-07T11:19:22;98067.63;;;-145.95;33.76
37648;BME280;23490;53.656;10.076;2023-04-07T11:21:48;97960.28;;;-145.95;33.54
37648;BME280;23490;53.656;10.076;2023-04-07T11:24:33;98152.25;;;-145.95;35.02
37648;BME280;23490;53.656;10.076;2023-04-07T11:26:58;98009.81;;;-145.95;35.20
37648;BME280;23490;53.656;10.076;2023-04-07T11:29:32;97960.28;;;-145.95;35.88
37648;BME280;23490;53.656;10.076;2023-04-07T11:32:01;97793.06;;;-145.95;34.63
37648;BME280;23490;53.656;10.076;2023-04-07T11:34:34;97894.22;;;-145.95;35.09
37648;BME280;23490;53.656;10.076;2023-04-07T11:37:22;97609.34;;;-145.95;33.78
37648;BME280;23490;53.656;10.076;2023-04-07T11:39:54;97844.66;;;-145.95;35.02
37648;BME280;23490;53.656;10.076;2023-04-07T11:42:36;97776.56;;;-145.95;35.01
37648;BME280;23490;53.656;10.076;2023-04-07T11:45:03;97716.69;;;-145.95;33.93
37648;BME280;23490;53.656;10.076;2023-04-07T11:47:39;97749.72;;;-145.95;34.36
37648;BME280;23490;53.656;10.076;2023-04-07T11:50:05;97797.19;;;-145.95;34.54
37648;BME280;23490;53.656;10.076;2023-04-07T11:52:44;97811.66;;;-145.95;35.33
37648;BME280;23490;53.656;10.076;2023-04-07T11:55:20;97836.41;;;-145.95;35.63
37648;BME280;23490;53.656;10.076;2023-04-07T11:57:48;97716.69;;;-145.95;34.86
37648;BME280;23490;53.656;10.076;2023-04-07T12:00:16;97815.78;;;-145.95;35.03
37648;BME280;23490;53.656;10.076;2023-04-07T12:02:42;97813.72;;;-145.95;35.56
37648;BME280;23490;53.656;10.076;2023-04-07T12:05:09;97660.97;;;-145.95;34.08
37648;BME280;23490;53.656;10.076;2023-04-07T12:07:38;97720.81;;;-145.95;34.17
37648;BME280;23490;53.656;10.076;2023-04-07T12:10:22;97469.00;;;-145.95;34.02
37648;BME280;23490;53.656;10.076;2023-04-07T12:12:50;97464.88;;;-145.95;33.00
37648;BME280;23490;53.656;10.076;2023-04-07T12:15:16;97700.19;;;-145.95;34.57
37648;BME280;23490;53.656;10.076;2023-04-07T12:17:46;97435.97;;;-145.95;34.60
37648;BME280;23490;53.656;10.076;2023-04-07T12:20:12;97537.09;;;-145.95;34.76
37648;BME280;23490;53.656;10.076;2023-04-07T12:22:38;97669.22;;;-145.95;35.23
37648;BME280;23490;53.656;10.076;2023-04-07T12:25:03;97524.72;;;-145.95;36.20
37648;BME280;23490;53.656;10.076;2023-04-07T12:27:29;97458.69;;;-145.95;34.82
37648;BME280;23490;53.656;10.076;2023-04-07T12:29:55;97440.09;;;-145.95;35.75
37648;BME280;23490;53.656;10.076;2023-04-07T12:32:20;97520.59;;;-145.95;37.23
37648;BME280;23490;53.656;10.076;2023-04-07T12:34:45;97413.25;;;-145.95;36.66
37648;BME280;23490;53.656;10.076;2023-04-07T12:37:12;97250.22;;;-145.95;34.26
37648;BME280;23490;53.656;10.076;2023-04-07T12:39:37;97324.50;;;-145.95;35.94
37648;BME280;23490;53.656;10.076;2023-04-07T12:42:03;97390.56;;;-145.95;35.96
37648;BME280;23490;53.656;10.076;2023-04-07T12:44:29;97479.31;;;-145.95;37.45
37648;BME280;23490;53.656;10.076;2023-04-07T12:46:55;97495.81;;;-145.95;37.34